createdAt,value
2022-10-14T00:03:16.071Z,25.60
2022-10-14T00:08:16.793Z,25.90
2022-10-14T00:13:17.500Z,25.30
2022-10-14T00:18:18.317Z,25.90
2022-10-14T00:23:19.059Z,24.70
2022-10-14T00:28:19.912Z,24.90
2022-10-14T00:33:20.744Z,24.90
2022-10-14T00:38:21.525Z,25.60
2022-10-14T00:43:22.293Z,25.40
2022-10-14T00:48:23.063Z,27.00
2022-10-14T00:53:23.897Z,26.30
2022-10-14T00:58:24.670Z,27.30
2022-10-14T01:03:25.410Z,25.70
2022-10-14T01:08:26.141Z,25.20
2022-10-14T01:13:26.937Z,25.10
2022-10-14T01:18:27.727Z,25.60
2022-10-14T01:23:28.509Z,25.70
2022-10-14T01:28:30.009Z,25.10
2022-10-14T01:33:29.925Z,24.60
2022-10-14T01:38:30.636Z,24.40
2022-10-14T01:43:31.414Z,23.80
2022-10-14T01:48:32.109Z,23.30
2022-10-14T01:53:32.853Z,22.50
2022-10-14T01:58:33.622Z,22.90
2022-10-14T02:03:34.372Z,22.10
2022-10-14T02:08:35.208Z,22.50
2022-10-14T02:13:35.899Z,22.50
2022-10-14T02:18:36.759Z,22.60
2022-10-14T02:23:37.569Z,22.20
2022-10-14T02:28:38.553Z,21.90
2022-10-14T02:33:39.253Z,22.30
2022-10-14T02:38:39.987Z,23.30
2022-10-14T02:43:40.777Z,23.40
2022-10-14T02:48:41.486Z,23.40
2022-10-14T02:53:42.259Z,23.30
2022-10-14T02:58:42.950Z,21.80
2022-10-14T03:03:43.703Z,22.10
2022-10-14T03:08:44.485Z,22.30
2022-10-14T03:13:45.198Z,20.50
2022-10-14T03:18:45.968Z,21.40
2022-10-14T03:23:46.716Z,20.40
2022-10-14T03:28:47.511Z,19.70
2022-10-14T03:33:48.239Z,21.10
2022-10-14T03:38:48.990Z,19.90
2022-10-14T03:43:49.708Z,19.90
2022-10-14T03:48:50.451Z,19.30
2022-10-14T03:53:51.260Z,19.60
2022-10-14T03:58:51.964Z,20.50
2022-10-14T04:03:52.739Z,22.40
2022-10-14T04:08:53.476Z,22.00
2022-10-14T04:14:01.194Z,20.80
2022-10-14T04:18:54.940Z,23.30
2022-10-14T04:23:55.649Z,22.00
2022-10-14T04:28:56.419Z,22.60
2022-10-14T04:33:57.142Z,22.80
2022-10-14T04:38:57.861Z,22.10
2022-10-14T04:43:58.586Z,21.70
2022-10-14T04:48:59.328Z,20.90
2022-10-14T04:54:00.084Z,21.60
2022-10-14T04:59:00.756Z,22.90
2022-10-14T05:04:01.445Z,22.70
2022-10-14T05:09:02.102Z,22.50
2022-10-14T05:14:02.750Z,23.20
2022-10-14T05:19:03.463Z,21.80
2022-10-14T05:24:04.143Z,22.70
2022-10-14T05:29:04.803Z,20.80
2022-10-14T05:34:05.494Z,21.20
2022-10-14T05:39:06.167Z,21.50
2022-10-14T05:44:06.837Z,20.90
2022-10-14T05:49:07.512Z,19.90
2022-10-14T05:54:08.171Z,20.10
2022-10-14T05:59:08.866Z,18.90
2022-10-14T06:04:09.588Z,19.40
2022-10-14T06:09:11.565Z,19.10
2022-10-14T06:14:10.811Z,19.90
2022-10-14T06:19:11.503Z,33.20
2022-10-14T06:24:12.322Z,20.70
2022-10-14T06:29:12.939Z,20.30
2022-10-14T06:34:13.613Z,20.30
2022-10-14T06:39:14.285Z,21.10
2022-10-14T06:44:14.946Z,19.80
2022-10-14T06:49:15.607Z,21.40
2022-10-14T06:54:16.290Z,20.80
2022-10-14T06:59:16.947Z,20.50
2022-10-14T07:04:17.620Z,22.70
2022-10-14T07:09:18.303Z,21.10
2022-10-14T07:14:18.970Z,22.40
2022-10-14T07:19:19.611Z,19.80
2022-10-14T07:24:20.307Z,23.50
2022-10-14T07:29:20.986Z,20.30
2022-10-14T07:34:21.648Z,20.20
2022-10-14T07:39:22.320Z,20.80
2022-10-14T07:44:26.466Z,20.70
2022-10-14T07:49:23.527Z,20.80
2022-10-14T07:54:24.236Z,20.20
2022-10-14T07:59:24.915Z,20.50
2022-10-14T08:04:25.565Z,19.90
2022-10-14T08:14:26.866Z,20.20
2022-10-14T08:19:27.504Z,19.20
2022-10-14T08:24:28.200Z,20.30
2022-10-14T08:29:28.909Z,20.70
2022-10-14T08:34:29.569Z,19.60
2022-10-14T08:39:30.260Z,20.20
2022-10-14T08:44:30.936Z,20.90
2022-10-14T08:49:31.604Z,19.70
2022-10-14T08:54:32.289Z,19.30
2022-10-14T08:59:32.956Z,19.80
2022-10-14T09:04:33.633Z,18.10
2022-10-14T09:09:34.326Z,17.60
2022-10-14T09:14:34.979Z,17.30
2022-10-14T09:19:35.671Z,18.20
2022-10-14T09:24:36.310Z,17.50
2022-10-14T09:29:37.009Z,17.70
2022-10-14T09:34:37.681Z,17.20
2022-10-14T09:39:38.331Z,16.90
2022-10-14T09:44:39.035Z,15.90
2022-10-14T09:49:39.700Z,17.20
2022-10-14T09:54:40.379Z,15.80
2022-10-14T09:59:41.076Z,16.30
2022-10-14T10:04:41.748Z,16.20
2022-10-14T10:09:42.383Z,16.90
2022-10-14T10:14:50.099Z,16.40
2022-10-14T10:19:43.848Z,16.00
2022-10-14T10:24:44.524Z,16.10
2022-10-14T10:29:45.156Z,17.50
2022-10-14T10:34:45.877Z,17.40
2022-10-14T10:39:46.559Z,19.00
2022-10-14T10:44:47.264Z,18.40
2022-10-14T10:49:47.984Z,18.70
2022-10-14T10:54:48.646Z,17.00
2022-10-14T10:59:49.350Z,17.80
2022-10-14T11:04:50.030Z,18.50
2022-10-14T11:09:50.723Z,19.00
2022-10-14T11:14:51.400Z,18.20
2022-10-14T11:19:52.137Z,17.80
2022-10-14T11:24:52.869Z,15.80
2022-10-14T11:29:53.500Z,14.90
2022-10-14T11:34:54.250Z,15.60
2022-10-14T11:39:55.104Z,16.00
2022-10-14T11:44:55.854Z,16.10
2022-10-14T11:49:56.470Z,16.10
2022-10-14T11:54:57.281Z,16.10
2022-10-14T11:59:58.032Z,15.50
2022-10-14T12:04:58.665Z,15.60
2022-10-14T12:10:00.078Z,16.40
2022-10-14T12:15:00.033Z,15.20
2022-10-14T12:20:00.649Z,13.60
2022-10-14T12:25:01.451Z,12.70
2022-10-14T12:30:02.140Z,12.60
2022-10-14T12:35:02.954Z,13.10
2022-10-14T12:40:03.740Z,13.00
2022-10-14T12:45:04.364Z,12.80
2022-10-14T12:50:05.034Z,13.40
2022-10-14T12:55:05.743Z,13.10
2022-10-14T13:00:06.503Z,13.20
2022-10-14T13:05:07.173Z,12.70
2022-10-14T13:10:07.862Z,12.40
2022-10-14T13:15:08.541Z,12.00
2022-10-14T13:20:09.202Z,11.70
2022-10-14T13:25:09.882Z,11.00
2022-10-14T13:30:10.697Z,10.70
2022-10-14T13:35:12.075Z,9.80
2022-10-14T13:40:12.472Z,8.90
2022-10-14T13:45:13.241Z,8.90
2022-10-14T13:50:13.908Z,8.60
2022-10-14T13:55:14.720Z,8.80
2022-10-14T14:05:17.018Z,8.50
2022-10-14T14:10:16.648Z,8.50
2022-10-14T14:15:17.434Z,8.40
2022-10-14T14:20:18.209Z,7.60
2022-10-14T14:25:35.683Z,7.90
2022-10-14T14:30:20.950Z,7.40
2022-10-14T14:35:22.821Z,7.60
2022-10-14T14:40:20.756Z,8.10
2022-10-14T14:45:21.468Z,7.70
2022-10-14T14:50:30.878Z,7.00
2022-10-14T14:55:23.627Z,7.60
2022-10-14T15:00:23.310Z,7.50
2022-10-14T15:05:24.307Z,7.30
2022-10-14T15:10:24.975Z,7.50
2022-10-14T15:15:25.706Z,7.60
2022-10-14T15:20:26.402Z,7.60
2022-10-14T15:25:27.056Z,7.90
2022-10-14T15:30:27.736Z,8.00
2022-10-14T15:35:28.460Z,7.70
2022-10-14T15:40:29.174Z,8.80
2022-10-14T15:45:29.990Z,8.90
2022-10-14T15:50:30.687Z,9.20
2022-10-14T15:55:31.390Z,8.50
2022-10-14T16:00:32.104Z,8.70
2022-10-14T16:05:32.920Z,8.80
2022-10-14T16:10:34.480Z,9.20
2022-10-14T16:15:41.177Z,9.10
2022-10-14T16:20:34.826Z,9.40
2022-10-14T16:25:35.537Z,10.40
2022-10-14T16:30:36.186Z,9.80
2022-10-14T16:35:36.840Z,10.50
2022-10-14T16:40:37.515Z,10.50
2022-10-14T16:45:38.212Z,17.10
2022-10-14T16:50:39.004Z,13.90
2022-10-14T16:55:39.756Z,13.10
2022-10-14T17:00:40.507Z,9.70
2022-10-14T17:05:41.229Z,10.70
2022-10-14T17:10:42.016Z,10.60
2022-10-14T17:15:42.743Z,10.60
2022-10-14T17:20:43.475Z,11.40
2022-10-14T17:25:44.198Z,10.50
2022-10-14T17:30:44.899Z,10.00
2022-10-14T17:35:45.671Z,11.60
2022-10-14T17:40:46.431Z,10.30
2022-10-14T17:45:47.151Z,10.00
2022-10-14T17:50:47.850Z,9.70
2022-10-14T17:55:50.695Z,10.10
2022-10-14T18:00:49.517Z,10.50
2022-10-14T18:05:50.508Z,11.20
2022-10-14T18:10:50.825Z,11.00
2022-10-14T18:15:51.498Z,11.10
2022-10-14T18:20:52.289Z,10.70
2022-10-14T18:25:53.108Z,11.90
2022-10-14T18:30:53.955Z,10.80
2022-10-14T18:35:54.740Z,10.70
2022-10-14T18:40:55.547Z,11.40
2022-10-14T18:45:56.301Z,11.40
2022-10-14T18:50:57.144Z,11.50
2022-10-14T18:55:59.500Z,10.80
2022-10-14T19:00:58.869Z,11.20
2022-10-14T19:05:59.580Z,10.80
2022-10-14T19:11:00.309Z,10.90
2022-10-14T19:16:01.014Z,10.10
2022-10-14T19:21:01.758Z,10.50
2022-10-14T19:26:02.466Z,10.40
2022-10-14T19:31:03.235Z,10.20
2022-10-14T19:36:03.987Z,10.20
2022-10-14T19:41:04.820Z,11.00
2022-10-14T19:46:05.474Z,11.80
2022-10-14T19:51:07.168Z,11.40
2022-10-14T19:56:07.064Z,12.10
2022-10-14T20:01:07.842Z,11.20
2022-10-14T20:06:08.679Z,12.60
2022-10-14T20:11:09.406Z,11.10
2022-10-14T20:16:10.165Z,11.30
2022-10-14T20:21:10.883Z,11.10
2022-10-14T20:26:11.651Z,11.10
2022-10-14T20:31:12.408Z,11.50
2022-10-14T20:36:13.090Z,11.90
2022-10-14T20:41:13.874Z,12.30
2022-10-14T20:46:14.555Z,12.40
2022-10-14T20:51:15.270Z,12.70
2022-10-14T20:56:16.115Z,12.90
2022-10-14T21:01:17.059Z,12.30
2022-10-14T21:06:17.412Z,13.10
2022-10-14T21:11:18.250Z,13.00
2022-10-14T21:16:19.068Z,14.90
2022-10-14T21:21:19.858Z,15.40
2022-10-14T21:26:20.633Z,16.00
2022-10-14T21:31:21.624Z,17.10
2022-10-14T21:36:22.170Z,16.30
2022-10-14T21:41:22.444Z,16.80
2022-10-14T21:46:23.325Z,16.60
2022-10-14T21:51:24.169Z,17.60
2022-10-14T21:56:25.022Z,18.00
2022-10-14T22:01:25.801Z,18.40
2022-10-14T22:06:26.629Z,19.30
2022-10-14T22:11:27.516Z,19.10
2022-10-14T22:16:28.365Z,20.10
2022-10-14T22:21:29.227Z,20.10
2022-10-14T22:26:30.199Z,19.30
2022-10-14T22:31:30.539Z,20.60
2022-10-14T22:36:31.371Z,20.50
2022-10-14T22:41:35.419Z,20.40
2022-10-14T22:46:32.669Z,20.60
2022-10-14T22:51:33.395Z,21.10
2022-10-14T22:56:34.068Z,21.00
2022-10-14T23:01:34.997Z,21.00
2022-10-14T23:06:35.823Z,21.40
2022-10-14T23:11:36.548Z,21.10
2022-10-14T23:16:44.302Z,21.20
2022-10-14T23:21:38.147Z,21.30
2022-10-14T23:26:38.898Z,20.70
2022-10-14T23:31:39.670Z,20.70
2022-10-14T23:36:40.624Z,20.70
2022-10-14T23:41:41.046Z,20.70
2022-10-14T23:46:41.758Z,20.40
2022-10-14T23:51:42.627Z,20.30
2022-10-14T23:56:43.393Z,20.70
